sensor_id;sensor_type;location;lat;lon;timestamp;pressure;altitude;pressure_sealevel;temperature;humidity
49627;BME280;35527;54.616;39.786;2023-04-23T00:02:19;99607.63;;;7.95;48.63
49627;BME280;35527;54.616;39.786;2023-04-23T00:05:26;99626.22;;;8.05;50.24
49627;BME280;35527;54.616;39.786;2023-04-23T00:08:31;99629.13;;;7.94;50.09
49627;BME280;35527;54.616;39.786;2023-04-23T00:11:34;99627.50;;;7.92;49.18
49627;BME280;35527;54.616;39.786;2023-04-23T00:14:36;99613.91;;;7.86;49.25
49627;BME280;35527;54.616;39.786;2023-04-23T00:17:40;99631.59;;;7.99;49.23
49627;BME280;35527;54.616;39.786;2023-04-23T00:20:46;99639.22;;;8.02;48.93
49627;BME280;35527;54.616;39.786;2023-04-23T00:23:50;99623.19;;;7.92;49.45
49627;BME280;35527;54.616;39.786;2023-04-23T00:26:53;99624.72;;;7.98;49.32
49627;BME280;35527;54.616;39.786;2023-04-23T00:29:57;99623.88;;;7.97;48.82
49627;BME280;35527;54.616;39.786;2023-04-23T00:33:04;99629.19;;;7.93;48.98
49627;BME280;35527;54.616;39.786;2023-04-23T00:36:10;99648.13;;;7.92;49.63
49627;BME280;35527;54.616;39.786;2023-04-23T00:39:13;99644.06;;;7.84;50.02
49627;BME280;35527;54.616;39.786;2023-04-23T00:42:16;99649.44;;;7.77;50.17
49627;BME280;35527;54.616;39.786;2023-04-23T00:45:20;99652.19;;;7.71;50.44
49627;BME280;35527;54.616;39.786;2023-04-23T00:48:24;99646.50;;;7.59;51.25
49627;BME280;35527;54.616;39.786;2023-04-23T00:51:29;99655.47;;;7.46;51.51
49627;BME280;35527;54.616;39.786;2023-04-23T00:54:33;99652.81;;;7.49;52.41
49627;BME280;35527;54.616;39.786;2023-04-23T00:57:36;99643.78;;;7.36;52.66
49627;BME280;35527;54.616;39.786;2023-04-23T01:00:43;99657.47;;;7.36;53.39
49627;BME280;35527;54.616;39.786;2023-04-23T01:03:50;99652.69;;;7.24;53.88
49627;BME280;35527;54.616;39.786;2023-04-23T01:06:55;99672.22;;;7.31;54.15
49627;BME280;35527;54.616;39.786;2023-04-23T01:09:59;99660.47;;;7.21;53.97
49627;BME280;35527;54.616;39.786;2023-04-23T01:13:03;99667.44;;;7.17;54.31
49627;BME280;35527;54.616;39.786;2023-04-23T01:16:06;99664.41;;;7.03;54.36
49627;BME280;35527;54.616;39.786;2023-04-23T01:19:12;99684.94;;;7.05;54.48
49627;BME280;35527;54.616;39.786;2023-04-23T01:22:19;99664.84;;;6.86;54.66
49627;BME280;35527;54.616;39.786;2023-04-23T01:25:24;99684.41;;;6.92;55.50
49627;BME280;35527;54.616;39.786;2023-04-23T01:28:28;99675.38;;;6.77;55.98
49627;BME280;35527;54.616;39.786;2023-04-23T01:31:32;99694.13;;;6.81;55.74
49627;BME280;35527;54.616;39.786;2023-04-23T01:34:35;99696.88;;;6.74;55.87
49627;BME280;35527;54.616;39.786;2023-04-23T01:37:40;99682.66;;;6.61;55.70
49627;BME280;35527;54.616;39.786;2023-04-23T01:40:47;99678.63;;;6.49;55.93
49627;BME280;35527;54.616;39.786;2023-04-23T01:43:51;99697.22;;;6.61;56.21
49627;BME280;35527;54.616;39.786;2023-04-23T01:46:56;99701.56;;;6.59;56.13
49627;BME280;35527;54.616;39.786;2023-04-23T01:49:59;99693.03;;;6.57;55.80
49627;BME280;35527;54.616;39.786;2023-04-23T01:53:03;99690.44;;;6.58;55.73
49627;BME280;35527;54.616;39.786;2023-04-23T01:56:07;99687.88;;;6.58;55.94
49627;BME280;35527;54.616;39.786;2023-04-23T01:59:11;99706.63;;;6.62;55.92
49627;BME280;35527;54.616;39.786;2023-04-23T02:02:20;99688.81;;;6.54;55.35
49627;BME280;35527;54.616;39.786;2023-04-23T02:05:24;99687.91;;;6.55;54.93
49627;BME280;35527;54.616;39.786;2023-04-23T02:08:30;99721.00;;;6.70;55.07
49627;BME280;35527;54.616;39.786;2023-04-23T02:11:35;99701.50;;;6.60;55.26
49627;BME280;35527;54.616;39.786;2023-04-23T02:14:41;99694.78;;;6.56;55.26
49627;BME280;35527;54.616;39.786;2023-04-23T02:17:44;99705.72;;;6.64;55.30
49627;BME280;35527;54.616;39.786;2023-04-23T02:20:50;99706.41;;;6.71;55.00
49627;BME280;35527;54.616;39.786;2023-04-23T02:23:53;99705.41;;;6.76;54.73
49627;BME280;35527;54.616;39.786;2023-04-23T02:26:56;99703.72;;;6.75;54.88
49627;BME280;35527;54.616;39.786;2023-04-23T02:29:59;99722.31;;;6.85;54.89
49627;BME280;35527;54.616;39.786;2023-04-23T02:33:07;99722.16;;;6.93;54.72
49627;BME280;35527;54.616;39.786;2023-04-23T02:36:12;99728.72;;;7.03;55.26
49627;BME280;35527;54.616;39.786;2023-04-23T02:39:16;99717.66;;;7.01;55.68
49627;BME280;35527;54.616;39.786;2023-04-23T02:42:18;99740.34;;;7.18;55.36
49627;BME280;35527;54.616;39.786;2023-04-23T02:45:23;99739.41;;;7.20;55.55
49627;BME280;35527;54.616;39.786;2023-04-23T02:48:26;99724.78;;;7.22;55.22
49627;BME280;35527;54.616;39.786;2023-04-23T02:51:31;99739.53;;;7.49;54.74
49627;BME280;35527;54.616;39.786;2023-04-23T02:54:34;99731.44;;;7.61;54.03
49627;BME280;35527;54.616;39.786;2023-04-23T02:57:42;99750.53;;;7.85;53.82
49627;BME280;35527;54.616;39.786;2023-04-23T03:00:46;99747.59;;;7.97;53.23
49627;BME280;35527;54.616;39.786;2023-04-23T03:03:52;99747.91;;;8.15;53.53
49627;BME280;35527;54.616;39.786;2023-04-23T03:06:56;99754.47;;;8.54;52.06
49627;BME280;35527;54.616;39.786;2023-04-23T03:10:00;99747.56;;;9.80;50.18
49627;BME280;35527;54.616;39.786;2023-04-23T03:13:08;99751.69;;;12.69;44.07
49627;BME280;35527;54.616;39.786;2023-04-23T03:16:14;99756.16;;;15.25;38.57
49627;BME280;35527;54.616;39.786;2023-04-23T03:19:18;99772.69;;;17.19;34.90
49627;BME280;35527;54.616;39.786;2023-04-23T03:22:21;99763.28;;;18.54;32.16
49627;BME280;35527;54.616;39.786;2023-04-23T03:25:24;99771.06;;;19.37;30.64
49627;BME280;35527;54.616;39.786;2023-04-23T03:28:31;99766.34;;;20.10;29.57
49627;BME280;35527;54.616;39.786;2023-04-23T03:31:35;99780.19;;;20.78;28.39
49627;BME280;35527;54.616;39.786;2023-04-23T03:34:40;99763.88;;;21.05;27.25
49627;BME280;35527;54.616;39.786;2023-04-23T03:37:45;99776.72;;;21.40;27.13
49627;BME280;35527;54.616;39.786;2023-04-23T03:40:49;99769.91;;;21.58;26.47
49627;BME280;35527;54.616;39.786;2023-04-23T03:43:52;99778.81;;;22.38;25.66
49627;BME280;35527;54.616;39.786;2023-04-23T03:47:11;99789.47;;;21.87;26.02
49627;BME280;35527;54.616;39.786;2023-04-23T03:50:14;99774.00;;;21.72;26.07
49627;BME280;35527;54.616;39.786;2023-04-23T03:53:22;99788.38;;;21.68;25.82
49627;BME280;35527;54.616;39.786;2023-04-23T03:56:46;99790.69;;;21.52;26.02
49627;BME280;35527;54.616;39.786;2023-04-23T04:00:00;99809.78;;;21.75;26.15
49627;BME280;35527;54.616;39.786;2023-04-23T04:03:14;99816.38;;;21.90;25.92
49627;BME280;35527;54.616;39.786;2023-04-23T04:06:17;99816.44;;;22.10;25.26
49627;BME280;35527;54.616;39.786;2023-04-23T04:09:20;99825.91;;;22.82;24.50
49627;BME280;35527;54.616;39.786;2023-04-23T04:12:23;99832.59;;;23.25;23.82
49627;BME280;35527;54.616;39.786;2023-04-23T04:15:30;99828.81;;;23.47;23.67
49627;BME280;35527;54.616;39.786;2023-04-23T04:18:34;99819.88;;;23.57;23.55
49627;BME280;35527;54.616;39.786;2023-04-23T04:21:37;99814.28;;;23.60;22.99
49627;BME280;35527;54.616;39.786;2023-04-23T04:24:39;99836.28;;;24.08;22.40
49627;BME280;35527;54.616;39.786;2023-04-23T04:27:45;99808.41;;;24.14;21.91
49627;BME280;35527;54.616;39.786;2023-04-23T04:30:52;99833.09;;;24.78;21.08
49627;BME280;35527;54.616;39.786;2023-04-23T04:33:56;99835.16;;;25.20;20.66
49627;BME280;35527;54.616;39.786;2023-04-23T04:37:03;99825.91;;;25.24;20.46
49627;BME280;35527;54.616;39.786;2023-04-23T04:40:08;99838.34;;;25.49;20.15
49627;BME280;35527;54.616;39.786;2023-04-23T04:43:12;99842.34;;;25.27;20.08
49627;BME280;35527;54.616;39.786;2023-04-23T04:46:18;99838.41;;;25.13;20.37
49627;BME280;35527;54.616;39.786;2023-04-23T04:49:22;99837.56;;;25.31;20.25
49627;BME280;35527;54.616;39.786;2023-04-23T04:52:29;99851.28;;;24.90;20.03
49627;BME280;35527;54.616;39.786;2023-04-23T04:55:33;99855.34;;;25.38;19.97
49627;BME280;35527;54.616;39.786;2023-04-23T04:58:37;99859.22;;;26.31;19.21
49627;BME280;35527;54.616;39.786;2023-04-23T05:01:42;99850.22;;;26.74;18.65
49627;BME280;35527;54.616;39.786;2023-04-23T05:04:46;99869.84;;;27.14;18.44
49627;BME280;35527;54.616;39.786;2023-04-23T05:07:52;99866.53;;;27.12;18.83
49627;BME280;35527;54.616;39.786;2023-04-23T05:11:02;99874.88;;;27.25;18.22
49627;BME280;35527;54.616;39.786;2023-04-23T05:14:06;99868.41;;;27.36;17.97
49627;BME280;35527;54.616;39.786;2023-04-23T05:17:11;99867.84;;;26.33;18.58
49627;BME280;35527;54.616;39.786;2023-04-23T05:20:18;99865.97;;;26.59;18.25
49627;BME280;35527;54.616;39.786;2023-04-23T05:23:22;99883.34;;;27.53;17.62
49627;BME280;35527;54.616;39.786;2023-04-23T05:26:25;99879.47;;;27.89;17.08
49627;BME280;35527;54.616;39.786;2023-04-23T05:29:29;99883.34;;;27.37;17.48
49627;BME280;35527;54.616;39.786;2023-04-23T05:32:35;99875.50;;;27.84;17.14
49627;BME280;35527;54.616;39.786;2023-04-23T05:35:38;99879.13;;;28.47;16.51
49627;BME280;35527;54.616;39.786;2023-04-23T05:38:41;99887.63;;;29.05;16.29
49627;BME280;35527;54.616;39.786;2023-04-23T05:41:47;99899.56;;;29.09;16.36
49627;BME280;35527;54.616;39.786;2023-04-23T05:44:50;99887.94;;;29.48;15.94
49627;BME280;35527;54.616;39.786;2023-04-23T05:47:57;99895.69;;;28.58;16.42
49627;BME280;35527;54.616;39.786;2023-04-23T05:51:13;99897.47;;;28.26;16.44
49627;BME280;35527;54.616;39.786;2023-04-23T05:54:20;99899.22;;;28.81;16.49
49627;BME280;35527;54.616;39.786;2023-04-23T05:57:24;99904.13;;;27.33;17.45
49627;BME280;35527;54.616;39.786;2023-04-23T06:00:29;99905.72;;;27.92;17.07
49627;BME280;35527;54.616;39.786;2023-04-23T06:03:34;99906.56;;;27.84;17.22
49627;BME280;35527;54.616;39.786;2023-04-23T06:06:42;99921.13;;;28.68;16.94
49627;BME280;35527;54.616;39.786;2023-04-23T06:09:45;99912.72;;;29.34;16.23
49627;BME280;35527;54.616;39.786;2023-04-23T06:12:48;99900.59;;;28.46;16.34
49627;BME280;35527;54.616;39.786;2023-04-23T06:15:52;99913.91;;;28.77;16.58
49627;BME280;35527;54.616;39.786;2023-04-23T06:18:55;99914.13;;;29.68;15.82
49627;BME280;35527;54.616;39.786;2023-04-23T06:21:59;99917.34;;;29.40;15.80
49627;BME280;35527;54.616;39.786;2023-04-23T06:25:06;99920.25;;;28.28;16.70
49627;BME280;35527;54.616;39.786;2023-04-23T06:28:11;99907.34;;;29.19;16.21
49627;BME280;35527;54.616;39.786;2023-04-23T06:31:38;99905.00;;;28.62;15.96
49627;BME280;35527;54.616;39.786;2023-04-23T06:34:44;99906.94;;;28.76;15.56
49627;BME280;35527;54.616;39.786;2023-04-23T06:37:54;99909.78;;;29.81;15.16
49627;BME280;35527;54.616;39.786;2023-04-23T06:41:03;99928.00;;;30.82;14.58
49627;BME280;35527;54.616;39.786;2023-04-23T06:44:06;99920.88;;;28.78;15.76
49627;BME280;35527;54.616;39.786;2023-04-23T06:47:29;99934.03;;;28.48;15.90
49627;BME280;35527;54.616;39.786;2023-04-23T06:50:38;99925.19;;;28.87;16.03
49627;BME280;35527;54.616;39.786;2023-04-23T06:53:43;99919.91;;;29.10;15.73
49627;BME280;35527;54.616;39.786;2023-04-23T06:56:48;99935.41;;;30.20;14.90
49627;BME280;35527;54.616;39.786;2023-04-23T06:59:52;99923.03;;;30.93;14.10
49627;BME280;35527;54.616;39.786;2023-04-23T07:03:04;99926.19;;;30.52;14.58
49627;BME280;35527;54.616;39.786;2023-04-23T07:06:13;99935.50;;;31.08;14.55
49627;BME280;35527;54.616;39.786;2023-04-23T07:09:19;99943.22;;;30.66;14.49
49627;BME280;35527;54.616;39.786;2023-04-23T07:12:21;99939.63;;;30.89;14.53
49627;BME280;35527;54.616;39.786;2023-04-23T07:15:24;99941.47;;;30.88;14.00
49627;BME280;35527;54.616;39.786;2023-04-23T07:18:30;99951.56;;;31.79;13.46
49627;BME280;35527;54.616;39.786;2023-04-23T07:21:35;99934.28;;;31.81;13.41
49627;BME280;35527;54.616;39.786;2023-04-23T07:24:38;99945.44;;;30.18;14.47
49627;BME280;35527;54.616;39.786;2023-04-23T07:27:47;99931.66;;;30.95;14.21
49627;BME280;35527;54.616;39.786;2023-04-23T07:30:51;99932.75;;;31.23;13.78
49627;BME280;35527;54.616;39.786;2023-04-23T07:33:57;99942.22;;;31.04;13.52
49627;BME280;35527;54.616;39.786;2023-04-23T07:37:06;99944.13;;;30.88;13.88
49627;BME280;35527;54.616;39.786;2023-04-23T07:40:09;99951.63;;;30.63;13.92
49627;BME280;35527;54.616;39.786;2023-04-23T07:43:16;99944.34;;;30.13;14.04
49627;BME280;35527;54.616;39.786;2023-04-23T07:46:20;99940.69;;;29.76;14.45
49627;BME280;35527;54.616;39.786;2023-04-23T07:49:23;99934.34;;;30.29;14.27
49627;BME280;35527;54.616;39.786;2023-04-23T07:52:25;99942.41;;;30.06;14.69
49627;BME280;35527;54.616;39.786;2023-04-23T07:55:29;99936.16;;;29.99;14.48
49627;BME280;35527;54.616;39.786;2023-04-23T07:58:34;99949.53;;;28.45;15.23
49627;BME280;35527;54.616;39.786;2023-04-23T08:01:37;99923.03;;;27.22;16.27
49627;BME280;35527;54.616;39.786;2023-04-23T08:04:40;99948.00;;;28.50;15.36
49627;BME280;35527;54.616;39.786;2023-04-23T08:07:44;99937.66;;;29.18;15.03
49627;BME280;35527;54.616;39.786;2023-04-23T08:10:46;99900.16;;;29.19;14.83
49627;BME280;35527;54.616;39.786;2023-04-23T08:13:49;99922.16;;;28.12;15.69
49627;BME280;35527;54.616;39.786;2023-04-23T08:16:53;99939.25;;;28.17;16.02
49627;BME280;35527;54.616;39.786;2023-04-23T08:19:57;99934.78;;;28.96;15.69
49627;BME280;35527;54.616;39.786;2023-04-23T08:23:01;99940.75;;;28.20;15.73
49627;BME280;35527;54.616;39.786;2023-04-23T08:26:05;99928.50;;;27.94;15.78
49627;BME280;35527;54.616;39.786;2023-04-23T08:29:08;99915.19;;;28.02;15.98
49627;BME280;35527;54.616;39.786;2023-04-23T08:32:13;99932.66;;;27.64;16.25
49627;BME280;35527;54.616;39.786;2023-04-23T08:35:16;99920.63;;;28.17;15.69
49627;BME280;35527;54.616;39.786;2023-04-23T08:38:22;99923.06;;;27.79;15.66
49627;BME280;35527;54.616;39.786;2023-04-23T08:41:26;99926.41;;;25.61;17.44
49627;BME280;35527;54.616;39.786;2023-04-23T08:44:35;99914.13;;;26.38;17.28
49627;BME280;35527;54.616;39.786;2023-04-23T08:47:41;99917.84;;;25.85;17.67
49627;BME280;35527;54.616;39.786;2023-04-23T08:50:45;99911.59;;;27.22;16.55
49627;BME280;35527;54.616;39.786;2023-04-23T08:53:55;99900.84;;;28.20;15.86
49627;BME280;35527;54.616;39.786;2023-04-23T08:57:00;99916.88;;;28.51;15.39
49627;BME280;35527;54.616;39.786;2023-04-23T09:00:05;99909.56;;;27.24;16.22
49627;BME280;35527;54.616;39.786;2023-04-23T09:03:11;99891.47;;;27.60;16.20
49627;BME280;35527;54.616;39.786;2023-04-23T09:06:15;99920.38;;;27.96;15.94
49627;BME280;35527;54.616;39.786;2023-04-23T09:09:20;99907.16;;;28.19;15.89
49627;BME280;35527;54.616;39.786;2023-04-23T09:12:28;99914.94;;;26.31;17.27
49627;BME280;35527;54.616;39.786;2023-04-23T09:15:32;99911.22;;;25.45;18.04
49627;BME280;35527;54.616;39.786;2023-04-23T09:18:41;99913.00;;;25.09;18.41
49627;BME280;35527;54.616;39.786;2023-04-23T09:21:45;99902.59;;;26.13;17.62
49627;BME280;35527;54.616;39.786;2023-04-23T09:24:49;99915.63;;;26.83;17.18
49627;BME280;35527;54.616;39.786;2023-04-23T09:27:57;99905.06;;;27.08;17.06
49627;BME280;35527;54.616;39.786;2023-04-23T09:31:00;99910.00;;;26.86;16.95
49627;BME280;35527;54.616;39.786;2023-04-23T09:34:06;99902.47;;;26.65;17.33
49627;BME280;35527;54.616;39.786;2023-04-23T09:37:11;99910.81;;;26.02;17.56
49627;BME280;35527;54.616;39.786;2023-04-23T09:40:22;99907.88;;;25.07;18.34
49627;BME280;35527;54.616;39.786;2023-04-23T09:43:29;99890.38;;;24.79;18.82
49627;BME280;35527;54.616;39.786;2023-04-23T09:46:37;99905.88;;;24.46;18.97
49627;BME280;35527;54.616;39.786;2023-04-23T09:49:48;99901.31;;;24.38;18.91
49627;BME280;35527;54.616;39.786;2023-04-23T09:52:54;99898.63;;;24.93;18.87
49627;BME280;35527;54.616;39.786;2023-04-23T09:55:59;99885.13;;;24.69;18.29
49627;BME280;35527;54.616;39.786;2023-04-23T09:59:21;99900.78;;;23.88;19.41
49627;BME280;35527;54.616;39.786;2023-04-23T10:02:30;99894.97;;;23.84;19.56
49627;BME280;35527;54.616;39.786;2023-04-23T10:05:38;99904.72;;;23.45;19.94
49627;BME280;35527;54.616;39.786;2023-04-23T10:08:46;99894.03;;;23.17;19.71
49627;BME280;35527;54.616;39.786;2023-04-23T10:11:53;99897.31;;;22.90;19.95
49627;BME280;35527;54.616;39.786;2023-04-23T10:14:56;99881.88;;;22.76;19.94
49627;BME280;35527;54.616;39.786;2023-04-23T10:18:01;99889.72;;;23.16;20.17
49627;BME280;35527;54.616;39.786;2023-04-23T10:21:04;99882.44;;;22.89;20.38
49627;BME280;35527;54.616;39.786;2023-04-23T10:24:12;99858.19;;;23.05;20.12
49627;BME280;35527;54.616;39.786;2023-04-23T10:27:21;99871.03;;;23.66;19.85
49627;BME280;35527;54.616;39.786;2023-04-23T10:30:30;99871.47;;;23.71;19.76
49627;BME280;35527;54.616;39.786;2023-04-23T10:33:33;99862.63;;;24.00;19.30
49627;BME280;35527;54.616;39.786;2023-04-23T10:36:44;99877.31;;;23.65;19.34
49627;BME280;35527;54.616;39.786;2023-04-23T10:40:00;99879.34;;;23.91;19.76
49627;BME280;35527;54.616;39.786;2023-04-23T10:43:06;99864.00;;;24.04;19.68
49627;BME280;35527;54.616;39.786;2023-04-23T10:46:32;99867.88;;;24.10;18.66
49627;BME280;35527;54.616;39.786;2023-04-23T10:49:37;99870.22;;;23.46;19.54
49627;BME280;35527;54.616;39.786;2023-04-23T10:52:43;99850.53;;;23.11;19.72
49627;BME280;35527;54.616;39.786;2023-04-23T10:55:48;99871.94;;;23.28;19.90
49627;BME280;35527;54.616;39.786;2023-04-23T10:58:52;99870.34;;;23.64;19.28
49627;BME280;35527;54.616;39.786;2023-04-23T11:02:17;99838.25;;;23.49;19.71
49627;BME280;35527;54.616;39.786;2023-04-23T11:05:21;99882.19;;;23.50;19.83
49627;BME280;35527;54.616;39.786;2023-04-23T11:08:34;99856.03;;;23.76;19.57
49627;BME280;35527;54.616;39.786;2023-04-23T11:11:42;99879.69;;;23.78;19.81
49627;BME280;35527;54.616;39.786;2023-04-23T11:14:49;99880.69;;;22.99;20.16
49627;BME280;35527;54.616;39.786;2023-04-23T11:20:58;99879.00;;;23.37;19.92
49627;BME280;35527;54.616;39.786;2023-04-23T11:24:06;99870.22;;;23.56;20.32
49627;BME280;35527;54.616;39.786;2023-04-23T11:27:14;99869.25;;;23.57;19.48
49627;BME280;35527;54.616;39.786;2023-04-23T11:30:24;99868.00;;;23.61;19.36
49627;BME280;35527;54.616;39.786;2023-04-23T11:33:28;99869.13;;;23.49;19.20
49627;BME280;35527;54.616;39.786;2023-04-23T11:36:32;99860.94;;;22.84;19.72
49627;BME280;35527;54.616;39.786;2023-04-23T11:39:37;99847.09;;;22.51;20.32
49627;BME280;35527;54.616;39.786;2023-04-23T11:42:45;99851.03;;;22.76;20.07
49627;BME280;35527;54.616;39.786;2023-04-23T11:45:50;99845.47;;;22.60;19.98
49627;BME280;35527;54.616;39.786;2023-04-23T11:48:54;99814.28;;;22.24;20.70
49627;BME280;35527;54.616;39.786;2023-04-23T11:51:58;99848.63;;;22.13;20.63
49627;BME280;35527;54.616;39.786;2023-04-23T11:55:05;99848.00;;;22.21;20.63
49627;BME280;35527;54.616;39.786;2023-04-23T11:58:09;99828.31;;;22.35;20.60
49627;BME280;35527;54.616;39.786;2023-04-23T12:01:14;99836.28;;;22.44;20.51
49627;BME280;35527;54.616;39.786;2023-04-23T12:04:28;99850.19;;;22.16;20.66
49627;BME280;35527;54.616;39.786;2023-04-23T12:07:31;99843.44;;;21.92;20.38
49627;BME280;35527;54.616;39.786;2023-04-23T12:13:49;99841.88;;;21.90;20.25
49627;BME280;35527;54.616;39.786;2023-04-23T12:16:57;99834.44;;;21.95;20.54
49627;BME280;35527;54.616;39.786;2023-04-23T12:20:04;99832.91;;;22.02;20.32
49627;BME280;35527;54.616;39.786;2023-04-23T12:23:12;99834.63;;;22.13;20.48
49627;BME280;35527;54.616;39.786;2023-04-23T12:26:18;99821.94;;;21.97;20.46
49627;BME280;35527;54.616;39.786;2023-04-23T12:29:23;99830.91;;;21.85;21.00
49627;BME280;35527;54.616;39.786;2023-04-23T12:32:29;99829.38;;;21.82;21.07
49627;BME280;35527;54.616;39.786;2023-04-23T12:35:40;99834.09;;;21.36;21.48
49627;BME280;35527;54.616;39.786;2023-04-23T12:38:44;99826.50;;;21.43;21.39
49627;BME280;35527;54.616;39.786;2023-04-23T12:41:52;99834.41;;;21.64;21.41
49627;BME280;35527;54.616;39.786;2023-04-23T12:45:04;99815.00;;;21.23;22.18
49627;BME280;35527;54.616;39.786;2023-04-23T12:48:10;99821.06;;;21.03;21.81
49627;BME280;35527;54.616;39.786;2023-04-23T12:51:13;99816.72;;;20.92;21.68
49627;BME280;35527;54.616;39.786;2023-04-23T12:54:18;99811.81;;;20.87;22.05
49627;BME280;35527;54.616;39.786;2023-04-23T12:57:22;99821.56;;;20.97;21.60
49627;BME280;35527;54.616;39.786;2023-04-23T13:00:27;99795.06;;;20.88;21.97
49627;BME280;35527;54.616;39.786;2023-04-23T13:03:32;99808.16;;;21.00;22.04
49627;BME280;35527;54.616;39.786;2023-04-23T13:06:36;99795.66;;;20.92;22.68
49627;BME280;35527;54.616;39.786;2023-04-23T13:09:39;99817.28;;;20.96;21.48
49627;BME280;35527;54.616;39.786;2023-04-23T13:12:42;99813.88;;;20.84;21.60
49627;BME280;35527;54.616;39.786;2023-04-23T13:15:46;99798.63;;;20.66;22.02
49627;BME280;35527;54.616;39.786;2023-04-23T13:18:48;99800.78;;;20.50;22.41
49627;BME280;35527;54.616;39.786;2023-04-23T13:21:54;99810.38;;;20.40;22.35
49627;BME280;35527;54.616;39.786;2023-04-23T13:25:04;99814.44;;;20.44;22.34
49627;BME280;35527;54.616;39.786;2023-04-23T13:28:07;99816.81;;;20.47;22.15
49627;BME280;35527;54.616;39.786;2023-04-23T13:31:11;99806.66;;;20.42;22.12
49627;BME280;35527;54.616;39.786;2023-04-23T13:34:21;99811.09;;;20.42;21.77
49627;BME280;35527;54.616;39.786;2023-04-23T13:37:31;99812.16;;;20.39;22.15
49627;BME280;35527;54.616;39.786;2023-04-23T13:40:43;99794.41;;;20.20;22.78
49627;BME280;35527;54.616;39.786;2023-04-23T13:43:51;99795.59;;;20.16;22.30
49627;BME280;35527;54.616;39.786;2023-04-23T13:46:57;99815.56;;;20.08;22.66
49627;BME280;35527;54.616;39.786;2023-04-23T13:50:08;99804.47;;;19.93;23.15
49627;BME280;35527;54.616;39.786;2023-04-23T13:53:11;99800.03;;;19.93;23.20
49627;BME280;35527;54.616;39.786;2023-04-23T13:56:14;99807.44;;;19.88;23.36
49627;BME280;35527;54.616;39.786;2023-04-23T13:59:17;99812.81;;;19.87;23.43
49627;BME280;35527;54.616;39.786;2023-04-23T14:02:23;99800.75;;;19.84;23.75
49627;BME280;35527;54.616;39.786;2023-04-23T14:05:30;99807.34;;;19.90;23.61
49627;BME280;35527;54.616;39.786;2023-04-23T14:08:32;99801.00;;;19.81;23.51
49627;BME280;35527;54.616;39.786;2023-04-23T14:11:38;99820.47;;;19.78;23.45
49627;BME280;35527;54.616;39.786;2023-04-23T14:14:43;99823.91;;;19.79;23.66
49627;BME280;35527;54.616;39.786;2023-04-23T14:17:49;99823.38;;;19.63;23.84
49627;BME280;35527;54.616;39.786;2023-04-23T14:20:53;99822.06;;;19.57;23.65
49627;BME280;35527;54.616;39.786;2023-04-23T14:24:01;99815.28;;;19.54;24.02
49627;BME280;35527;54.616;39.786;2023-04-23T14:27:15;99807.28;;;19.56;23.94
49627;BME280;35527;54.616;39.786;2023-04-23T14:30:19;99800.59;;;19.52;23.36
49627;BME280;35527;54.616;39.786;2023-04-23T14:33:24;99807.53;;;19.64;23.33
49627;BME280;35527;54.616;39.786;2023-04-23T14:36:30;99796.66;;;19.46;23.60
49627;BME280;35527;54.616;39.786;2023-04-23T14:39:36;99809.56;;;19.61;23.82
49627;BME280;35527;54.616;39.786;2023-04-23T14:42:40;99804.78;;;19.54;23.59
49627;BME280;35527;54.616;39.786;2023-04-23T14:45:43;99813.00;;;19.50;23.90
49627;BME280;35527;54.616;39.786;2023-04-23T14:48:49;99810.25;;;19.40;23.95
49627;BME280;35527;54.616;39.786;2023-04-23T14:51:53;99807.47;;;19.30;23.80
49627;BME280;35527;54.616;39.786;2023-04-23T14:54:56;99809.13;;;19.20;23.70
49627;BME280;35527;54.616;39.786;2023-04-23T14:57:59;99810.75;;;19.10;23.58
49627;BME280;35527;54.616;39.786;2023-04-23T15:01:04;99805.22;;;19.02;23.95
49627;BME280;35527;54.616;39.786;2023-04-23T15:04:13;99790.66;;;18.86;23.63
49627;BME280;35527;54.616;39.786;2023-04-23T15:07:18;99806.66;;;18.95;23.92
49627;BME280;35527;54.616;39.786;2023-04-23T15:10:21;99810.44;;;18.90;24.05
49627;BME280;35527;54.616;39.786;2023-04-23T15:16:37;99810.38;;;18.79;23.97
49627;BME280;35527;54.616;39.786;2023-04-23T15:19:42;99806.63;;;18.71;24.27
49627;BME280;35527;54.616;39.786;2023-04-23T15:22:45;99806.97;;;18.66;23.82
49627;BME280;35527;54.616;39.786;2023-04-23T15:25:52;99811.94;;;18.58;24.41
49627;BME280;35527;54.616;39.786;2023-04-23T15:28:58;99801.47;;;18.45;24.61
49627;BME280;35527;54.616;39.786;2023-04-23T15:32:03;99804.16;;;18.32;25.07
49627;BME280;35527;54.616;39.786;2023-04-23T15:35:06;99806.69;;;18.21;24.97
49627;BME280;35527;54.616;39.786;2023-04-23T15:38:14;99806.47;;;18.24;25.01
49627;BME280;35527;54.616;39.786;2023-04-23T15:41:19;99794.19;;;18.00;25.17
49627;BME280;35527;54.616;39.786;2023-04-23T15:44:22;99802.78;;;17.90;25.07
49627;BME280;35527;54.616;39.786;2023-04-23T15:47:30;99810.00;;;17.86;25.14
49627;BME280;35527;54.616;39.786;2023-04-23T15:50:35;99798.59;;;17.74;25.07
49627;BME280;35527;54.616;39.786;2023-04-23T15:53:41;99807.63;;;17.83;25.25
49627;BME280;35527;54.616;39.786;2023-04-23T15:56:45;99810.53;;;17.78;25.15
49627;BME280;35527;54.616;39.786;2023-04-23T16:12:24;99806.31;;;17.50;25.84
49627;BME280;35527;54.616;39.786;2023-04-23T16:15:28;99810.50;;;17.40;25.80
49627;BME280;35527;54.616;39.786;2023-04-23T16:18:31;99822.94;;;17.37;25.80
49627;BME280;35527;54.616;39.786;2023-04-23T16:21:36;99824.72;;;17.23;25.99
49627;BME280;35527;54.616;39.786;2023-04-23T16:24:40;99826.56;;;17.08;26.01
49627;BME280;35527;54.616;39.786;2023-04-23T16:27:44;99806.97;;;16.88;26.09
49627;BME280;35527;54.616;39.786;2023-04-23T16:30:48;99826.50;;;16.83;26.52
49627;BME280;35527;54.616;39.786;2023-04-23T16:33:52;99811.97;;;16.64;26.61
49627;BME280;35527;54.616;39.786;2023-04-23T16:36:54;99832.13;;;16.62;26.38